ENGM/OSL METAR and TAF weather

Enter ICAO airport designator
Station Type Date Time Source
ENGM METAR 2018/12/12 23:50 UTC NOAA

ENGM 122350Z 14002KT 3300 BCFG BKN002 M08/M09 Q1034


Station Type Date Time Source
ENGM Decoded METAR 2018/12/12 23:50 UTC NOAA

Oslo / Gardermoen, Norway (ENGM) 60-12N 011-05E 204M
Dec 12, 2018 - 06:50 PM EST / 2018.12.12 2350 UTC
Wind: from the SE (140 degrees) at 2 MPH (2 KT):0
Visibility: 2 mile(s):0
Sky conditions: mostly cloudy
Weather: patches of fog
Temperature: 17 F (-8 C)
Dew Point: 15 F (-9 C)
Relative Humidity: 92%
Pressure (altimeter): 30.53 in. Hg (1034 hPa)
ob: ENGM 122350Z 14002KT 3300 BCFG BKN002 M08/M09 Q1034
cycle: 0

Station Type Date Time Source
ENGM TAF 2018/12/12 18:57 UTC NOAA

TAF ENGM 121700Z 1218/1318 06005KT 6000 SCT002 BKN007
TEMPO 1218/1303 0500 FZFG VV002
BECMG 1306/1308 BKN015


Example: see airport list